createdAt,value
2018-10-16T00:01:31.474Z,100250.52
2018-10-16T00:05:36.823Z,100240.84
2018-10-16T00:09:41.367Z,100233.81
2018-10-16T00:13:45.927Z,100225.47
2018-10-16T00:17:50.241Z,100223.27
2018-10-16T00:21:54.666Z,100227.24
2018-10-16T00:25:59.011Z,100220.20
2018-10-16T00:30:03.359Z,100219.34
2018-10-16T00:34:07.840Z,100218.44
2018-10-16T00:38:12.257Z,100211.36
2018-10-16T00:42:16.806Z,100209.17
2018-10-16T00:46:21.447Z,100203.88
2018-10-16T00:50:25.691Z,100204.34
2018-10-16T00:54:29.746Z,100203.91
2018-10-16T00:58:33.782Z,100201.27
2018-10-16T01:02:37.990Z,100202.56
2018-10-16T01:06:42.368Z,100202.14
2018-10-16T01:10:47.206Z,100194.62
2018-10-16T01:14:51.639Z,100195.52
2018-10-16T01:18:55.973Z,100187.59
2018-10-16T01:22:59.997Z,100188.01
2018-10-16T01:27:03.984Z,100177.01
2018-10-16T01:31:08.331Z,100179.23
2018-10-16T01:35:13.106Z,100174.81
2018-10-16T01:39:17.118Z,100173.49
2018-10-16T01:43:21.412Z,100175.69
2018-10-16T01:47:25.483Z,100184.08
2018-10-16T01:51:29.601Z,100188.91
2018-10-16T01:55:34.531Z,100178.78
2018-10-16T01:59:38.527Z,100179.23
2018-10-16T02:03:42.646Z,100174.44
2018-10-16T02:07:49.203Z,100170.92
2018-10-16T02:11:53.331Z,100170.48
2018-10-16T02:15:57.569Z,100172.25
2018-10-16T02:20:01.692Z,100176.20
2018-10-16T02:24:05.843Z,100170.03
2018-10-16T02:28:10.036Z,100171.80
2018-10-16T02:32:14.068Z,100171.36
2018-10-16T02:36:18.061Z,100180.59
2018-10-16T02:40:22.022Z,100168.70
2018-10-16T02:44:26.009Z,100177.50
2018-10-16T02:48:30.286Z,100170.48
2018-10-16T02:52:34.255Z,100170.04
2018-10-16T02:56:38.358Z,100163.42
2018-10-16T03:00:42.463Z,100158.14
2018-10-16T03:04:46.398Z,100162.97
2018-10-16T03:08:51.495Z,100163.42
2018-10-16T03:12:55.517Z,100172.69
2018-10-16T03:16:59.700Z,100170.45
2018-10-16T03:21:03.657Z,100170.03
2018-10-16T03:25:08.834Z,100179.27
2018-10-16T03:29:12.863Z,100178.39
2018-10-16T03:33:16.975Z,100183.22
2018-10-16T03:37:20.979Z,100181.89
2018-10-16T03:41:25.038Z,100179.24
2018-10-16T03:45:28.974Z,100182.78
2018-10-16T03:49:33.037Z,100179.69
2018-10-16T03:53:37.001Z,100170.02
2018-10-16T03:57:41.015Z,100172.21
2018-10-16T04:01:45.104Z,100178.38
2018-10-16T04:05:50.144Z,100187.19
2018-10-16T04:09:54.883Z,100175.72
2018-10-16T04:13:59.077Z,100174.41
2018-10-16T04:18:03.356Z,100183.64
2018-10-16T04:22:07.765Z,100184.08
2018-10-16T04:26:13.158Z,100193.31
2018-10-16T04:30:17.374Z,100196.84
2018-10-16T04:34:21.722Z,100205.20
2018-10-16T04:38:25.938Z,100200.80
2018-10-16T04:42:30.364Z,100204.31
2018-10-16T04:46:34.598Z,100197.70
2018-10-16T04:50:38.935Z,100200.80
2018-10-16T04:54:43.074Z,100197.72
2018-10-16T04:58:46.964Z,100202.09
2018-10-16T05:02:50.993Z,100205.63
2018-10-16T05:06:55.074Z,100214.41
2018-10-16T05:10:59.077Z,100218.81
2018-10-16T05:15:03.120Z,100229.33
2018-10-16T05:19:07.219Z,100224.48
2018-10-16T05:23:11.287Z,100234.16
2018-10-16T05:27:15.283Z,100246.91
2018-10-16T05:31:19.607Z,100242.94
2018-10-16T05:35:23.808Z,100249.09
2018-10-16T05:39:29.173Z,100252.56
2018-10-16T05:43:33.772Z,100255.62
2018-10-16T05:47:38.124Z,100256.92
2018-10-16T05:51:42.818Z,100261.31
2018-10-16T05:55:47.053Z,100262.57
2018-10-16T05:59:55.065Z,100269.16
2018-10-16T06:03:59.270Z,100283.25
2018-10-16T06:08:04.519Z,100287.20
2018-10-16T06:12:09.844Z,100284.11
2018-10-16T06:16:13.846Z,100281.04
2018-10-16T06:20:18.098Z,100294.25
2018-10-16T06:24:22.408Z,100291.64
2018-10-16T06:28:28.101Z,100290.77
2018-10-16T06:32:32.226Z,100300.47
2018-10-16T06:36:36.426Z,100293.91
2018-10-16T06:40:41.861Z,100291.77
2018-10-16T06:44:45.994Z,100292.69
2018-10-16T06:48:51.418Z,100308.59
2018-10-16T06:52:55.600Z,100304.68
2018-10-16T06:57:00.122Z,100303.85
2018-10-16T07:01:04.863Z,100303.44
2018-10-16T07:05:09.246Z,100307.02
2018-10-16T07:09:13.865Z,100316.27
2018-10-16T07:13:19.361Z,100318.97
2018-10-16T07:17:23.870Z,100326.02
2018-10-16T07:21:28.267Z,100326.02
2018-10-16T07:25:41.633Z,100330.02
2018-10-16T07:34:02.846Z,100337.96
2018-10-16T07:38:07.502Z,100334.84
2018-10-16T07:42:14.561Z,100333.53
2018-10-16T07:46:20.910Z,100332.19
2018-10-16T07:50:28.301Z,100332.16
2018-10-16T07:54:39.827Z,100322.00
2018-10-16T07:58:59.112Z,100313.60
2018-10-16T16:59:38.286Z,100300.96
2018-10-16T17:03:42.556Z,100299.75
2018-10-16T18:22:21.623Z,100333.63
2018-10-16T18:40:07.632Z,100333.41
2018-10-16T18:53:47.614Z,100344.08
2018-10-16T18:57:53.730Z,100341.87
2018-10-16T21:44:49.555Z,100321.48
2018-10-16T21:48:54.368Z,100325.46
2018-10-16T21:52:58.661Z,100324.14
2018-10-16T22:01:14.809Z,100322.83
2018-10-16T22:05:23.845Z,100315.37
2018-10-16T22:09:28.027Z,100317.16
2018-10-16T22:13:32.032Z,100313.64
2018-10-16T22:17:36.011Z,100309.25
2018-10-16T22:21:40.002Z,100308.80
2018-10-16T22:25:43.980Z,100311.44
2018-10-16T22:29:47.969Z,100310.54
2018-10-16T22:33:52.718Z,100312.77
2018-10-16T22:37:56.672Z,100312.77
2018-10-16T22:42:00.440Z,100306.17
2018-10-16T22:46:04.218Z,100311.47
2018-10-16T22:50:11.443Z,100310.59
2018-10-16T22:54:15.363Z,100308.39
2018-10-16T22:58:19.282Z,100303.97
2018-10-16T23:02:23.593Z,100308.40
2018-10-16T23:06:27.473Z,100307.05
2018-10-16T23:10:31.433Z,100299.56
2018-10-16T23:14:35.359Z,100305.30
2018-10-16T23:18:39.290Z,100310.59
2018-10-16T23:22:43.317Z,100301.75
2018-10-16T23:26:47.267Z,100305.30
2018-10-16T23:30:51.178Z,100304.40
2018-10-16T23:34:55.232Z,100304.43
2018-10-16T23:38:58.848Z,100300.45
2018-10-16T23:43:02.804Z,100306.64
2018-10-16T23:47:06.806Z,100301.34
2018-10-16T23:51:10.595Z,100294.30
2018-10-16T23:55:14.469Z,100290.75
2018-10-16T23:59:18.344Z,100292.53
